createdAt,value
2019-05-29T00:00:30.490Z,1.90
2019-05-29T00:03:06.261Z,2.07
2019-05-29T00:05:41.321Z,2.23
2019-05-29T00:08:16.398Z,2.13
2019-05-29T00:10:51.412Z,1.73
2019-05-29T00:13:26.364Z,2.10
2019-05-29T00:16:01.403Z,2.60
2019-05-29T00:18:36.404Z,2.60
2019-05-29T00:21:11.977Z,2.10
2019-05-29T00:23:48.210Z,2.00
2019-05-29T00:26:23.257Z,2.20
2019-05-29T00:28:58.345Z,2.00
2019-05-29T00:31:33.689Z,2.67
2019-05-29T00:34:08.976Z,2.60
2019-05-29T00:36:44.026Z,2.53
2019-05-29T00:39:19.141Z,2.20
2019-05-29T00:41:54.049Z,2.40
2019-05-29T00:44:34.412Z,2.40
2019-05-29T00:47:07.437Z,1.97
2019-05-29T00:49:42.493Z,2.37
2019-05-29T00:52:18.360Z,2.63
2019-05-29T00:54:53.642Z,3.03
2019-05-29T00:57:29.717Z,2.40
2019-05-29T01:00:05.378Z,2.77
2019-05-29T01:02:40.506Z,2.50
2019-05-29T01:05:16.203Z,2.77
2019-05-29T01:07:51.417Z,2.67
2019-05-29T01:10:26.479Z,2.50
2019-05-29T01:13:01.395Z,2.73
2019-05-29T01:15:36.459Z,3.00
2019-05-29T01:18:11.706Z,2.70
2019-05-29T01:20:46.767Z,3.30
2019-05-29T01:23:22.443Z,2.77
2019-05-29T01:25:57.905Z,2.87
2019-05-29T01:28:33.171Z,3.20
2019-05-29T01:31:08.892Z,3.23
2019-05-29T01:33:43.820Z,3.60
2019-05-29T01:36:19.975Z,3.77
2019-05-29T01:38:55.053Z,3.00
2019-05-29T01:41:31.084Z,3.33
2019-05-29T01:44:06.022Z,3.23
2019-05-29T01:46:41.081Z,3.43
2019-05-29T01:49:16.424Z,3.40
2019-05-29T01:51:52.803Z,3.33
2019-05-29T01:54:28.021Z,3.57
2019-05-29T01:57:04.054Z,3.50
2019-05-29T01:59:38.987Z,3.40
2019-05-29T02:02:14.040Z,3.53
2019-05-29T02:04:49.017Z,3.60
2019-05-29T02:07:24.091Z,3.33
2019-05-29T02:09:59.146Z,3.00
2019-05-29T02:12:34.825Z,3.23
2019-05-29T02:15:24.794Z,3.10
2019-05-29T02:17:47.729Z,3.37
2019-05-29T02:20:27.900Z,3.40
2019-05-29T02:23:03.683Z,3.30
2019-05-29T02:25:38.758Z,3.80
2019-05-29T02:28:14.502Z,3.33
2019-05-29T02:30:49.451Z,3.73
2019-05-29T02:33:26.146Z,3.07
2019-05-29T02:36:01.907Z,3.63
2019-05-29T02:38:37.652Z,3.30
2019-05-29T02:41:12.571Z,3.47
2019-05-29T02:43:47.819Z,3.13
2019-05-29T02:46:24.005Z,3.67
2019-05-29T02:48:59.507Z,3.23
2019-05-29T02:51:34.545Z,3.00
2019-05-29T02:54:10.262Z,3.53
2019-05-29T02:56:45.319Z,3.03
2019-05-29T02:59:21.103Z,2.73
2019-05-29T03:01:56.177Z,3.10
2019-05-29T03:04:32.815Z,2.90
2019-05-29T03:07:09.167Z,2.57
2019-05-29T03:09:44.307Z,2.80
2019-05-29T03:12:19.250Z,2.90
2019-05-29T03:14:54.306Z,3.57
2019-05-29T03:17:29.774Z,3.23
2019-05-29T03:20:05.158Z,3.10
2019-05-29T03:22:40.079Z,3.40
2019-05-29T03:25:15.140Z,3.27
2019-05-29T03:27:50.100Z,3.33
2019-05-29T03:30:29.765Z,3.30
2019-05-29T03:33:02.565Z,3.40
2019-05-29T03:35:46.195Z,3.60
2019-05-29T03:38:14.342Z,3.50
2019-05-29T03:40:49.448Z,4.17
2019-05-29T03:43:24.375Z,4.07
2019-05-29T03:45:59.438Z,4.47
2019-05-29T03:48:34.635Z,4.87
2019-05-29T03:51:09.686Z,3.70
2019-05-29T03:53:45.905Z,4.67
2019-05-29T03:56:20.950Z,4.40
2019-05-29T03:58:56.036Z,4.10
2019-05-29T04:01:31.798Z,4.70
2019-05-29T04:04:07.744Z,4.90
2019-05-29T04:06:47.066Z,4.80
2019-05-29T04:09:19.446Z,4.50
2019-05-29T04:11:55.138Z,5.30
2019-05-29T04:14:31.522Z,5.27
2019-05-29T04:17:08.100Z,4.37
2019-05-29T04:19:44.903Z,4.70
2019-05-29T04:22:24.797Z,4.87
2019-05-29T04:25:02.688Z,4.37
2019-05-29T04:27:40.412Z,4.80
2019-05-29T04:30:15.852Z,5.33
2019-05-29T04:32:50.989Z,5.00
2019-05-29T04:35:26.165Z,5.10
2019-05-29T04:38:01.130Z,5.03
2019-05-29T04:40:37.439Z,5.23
2019-05-29T04:43:12.861Z,4.50
2019-05-29T04:45:47.946Z,4.40
2019-05-29T04:48:22.979Z,4.70
2019-05-29T04:50:57.976Z,5.00
2019-05-29T04:53:35.132Z,4.33
2019-05-29T04:56:10.491Z,5.17
2019-05-29T04:58:45.550Z,4.20
2019-05-29T05:01:20.629Z,4.57
2019-05-29T05:03:55.561Z,4.37
2019-05-29T05:06:31.186Z,5.07
2019-05-29T05:09:07.922Z,4.63
2019-05-29T05:11:42.977Z,4.03
2019-05-29T05:14:17.960Z,4.30
2019-05-29T05:16:54.054Z,4.40
2019-05-29T05:19:29.727Z,4.50
2019-05-29T05:22:06.486Z,4.50
2019-05-29T05:24:43.978Z,4.10
2019-05-29T05:27:18.245Z,4.27
2019-05-29T05:29:53.296Z,4.40
2019-05-29T05:32:28.372Z,4.57
2019-05-29T05:35:03.749Z,4.30
2019-05-29T05:37:38.948Z,4.10
2019-05-29T05:40:13.987Z,4.13
2019-05-29T05:42:49.741Z,4.40
2019-05-29T05:45:24.742Z,3.83
2019-05-29T05:47:59.927Z,4.23
2019-05-29T05:50:35.104Z,4.60
2019-05-29T05:53:10.832Z,3.57
2019-05-29T05:55:45.819Z,3.90
2019-05-29T05:58:20.894Z,3.30
2019-05-29T06:00:56.304Z,3.03
2019-05-29T06:03:31.855Z,3.00
2019-05-29T06:06:07.120Z,2.60
2019-05-29T06:08:43.169Z,3.23
2019-05-29T06:11:19.230Z,3.37
2019-05-29T06:13:54.354Z,3.13
2019-05-29T06:16:29.728Z,2.80
2019-05-29T06:19:11.119Z,2.40
2019-05-29T06:21:46.073Z,2.17
2019-05-29T06:24:21.287Z,2.37
2019-05-29T06:26:56.467Z,1.90
2019-05-29T06:29:31.603Z,2.27
2019-05-29T06:32:07.610Z,2.50
2019-05-29T06:34:43.816Z,2.30
2019-05-29T06:37:19.115Z,1.97
2019-05-29T06:39:54.233Z,2.97
2019-05-29T06:42:29.377Z,2.00
2019-05-29T06:45:05.198Z,2.33
2019-05-29T06:47:42.752Z,1.80
2019-05-29T06:50:18.408Z,1.73
2019-05-29T06:52:53.463Z,1.80
2019-05-29T06:55:28.619Z,2.00
2019-05-29T06:58:03.810Z,1.60
2019-05-29T07:00:39.382Z,1.83
2019-05-29T07:03:15.853Z,1.40
2019-05-29T07:05:52.849Z,1.30
2019-05-29T07:08:38.228Z,1.30
2019-05-29T07:11:04.478Z,0.93
2019-05-29T07:13:41.893Z,1.00
2019-05-29T07:16:16.621Z,0.90
2019-05-29T07:21:28.642Z,1.17
2019-05-29T07:24:04.544Z,1.20
2019-05-29T07:26:41.004Z,1.20
2019-05-29T07:29:16.278Z,1.00
2019-05-29T07:31:52.609Z,0.90
2019-05-29T07:34:27.914Z,1.40
2019-05-29T07:37:03.733Z,1.20
2019-05-29T07:39:39.703Z,1.50
2019-05-29T07:42:22.834Z,1.23
2019-05-29T07:44:58.689Z,1.10
2019-05-29T07:47:35.083Z,1.10
2019-05-29T07:50:10.531Z,1.03
2019-05-29T07:52:47.112Z,0.90
2019-05-29T07:55:23.943Z,1.13
2019-05-29T07:57:58.992Z,0.83
2019-05-29T08:00:36.176Z,1.03
2019-05-29T08:03:11.036Z,1.10
2019-05-29T08:05:51.008Z,1.20
2019-05-29T08:08:23.094Z,0.70
2019-05-29T08:10:58.914Z,0.93
2019-05-29T08:13:34.247Z,1.00
2019-05-29T08:16:09.479Z,0.80
2019-05-29T08:18:46.196Z,0.90
2019-05-29T08:21:21.884Z,1.10
2019-05-29T08:23:57.413Z,0.90
2019-05-29T08:26:33.139Z,1.00
2019-05-29T08:29:08.471Z,1.07
2019-05-29T08:31:44.736Z,1.00
2019-05-29T08:34:19.975Z,1.00
2019-05-29T08:37:06.571Z,0.80
2019-05-29T08:39:36.630Z,0.60
2019-05-29T08:42:22.380Z,0.70
2019-05-29T08:44:47.662Z,1.00
2019-05-29T08:47:22.873Z,0.80
2019-05-29T08:50:16.722Z,1.23
2019-05-29T08:52:36.107Z,0.90
2019-05-29T08:55:13.859Z,1.13
2019-05-29T08:57:50.447Z,0.97
2019-05-29T09:00:26.796Z,1.30
2019-05-29T09:03:06.860Z,1.00
2019-05-29T09:05:42.781Z,0.80
2019-05-29T09:08:18.168Z,1.23
2019-05-29T09:10:54.111Z,1.40
2019-05-29T09:13:29.621Z,1.33
2019-05-29T09:16:04.728Z,1.07
2019-05-29T09:18:39.742Z,1.30
2019-05-29T09:21:16.286Z,1.47
2019-05-29T09:23:51.856Z,1.40
2019-05-29T09:26:27.253Z,0.93
2019-05-29T09:29:02.331Z,1.23
2019-05-29T09:31:38.167Z,1.07
2019-05-29T09:34:13.715Z,1.00
2019-05-29T09:36:50.597Z,1.00
2019-05-29T09:39:25.969Z,0.90
2019-05-29T09:42:02.292Z,0.83
2019-05-29T09:44:39.094Z,0.97
2019-05-29T09:47:16.790Z,1.17
2019-05-29T09:49:51.036Z,0.90
2019-05-29T09:52:30.254Z,1.10
2019-05-29T09:55:03.026Z,1.13
2019-05-29T09:57:38.589Z,1.20
2019-05-29T10:00:14.991Z,0.90
2019-05-29T10:02:50.222Z,1.17
2019-05-29T10:05:25.380Z,0.90
2019-05-29T10:08:02.363Z,0.90
2019-05-29T10:10:37.512Z,1.00
2019-05-29T10:13:12.775Z,1.03
2019-05-29T10:15:47.971Z,0.90
2019-05-29T10:18:31.930Z,1.00
2019-05-29T10:21:01.283Z,1.40
2019-05-29T10:23:36.504Z,1.10
2019-05-29T10:26:14.415Z,1.10
2019-05-29T10:29:02.809Z,1.50
2019-05-29T10:31:26.485Z,1.43
2019-05-29T10:34:02.285Z,1.20
2019-05-29T10:36:38.136Z,1.33
2019-05-29T10:39:13.259Z,1.33
2019-05-29T10:41:48.866Z,1.60
2019-05-29T10:44:25.429Z,1.30
2019-05-29T10:47:00.800Z,1.10
2019-05-29T10:49:36.057Z,1.60
2019-05-29T10:52:16.460Z,1.50
2019-05-29T10:54:48.264Z,1.43
2019-05-29T10:57:23.301Z,1.57
2019-05-29T10:59:58.467Z,1.37
2019-05-29T11:02:33.852Z,0.90
2019-05-29T11:05:09.425Z,1.13
2019-05-29T11:07:45.712Z,2.20
2019-05-29T11:10:21.048Z,1.10
2019-05-29T11:12:57.178Z,1.67
2019-05-29T11:15:32.514Z,1.37
2019-05-29T11:18:10.936Z,1.13
2019-05-29T11:20:47.249Z,1.47
2019-05-29T11:23:22.409Z,1.00
2019-05-29T11:25:58.221Z,1.70
2019-05-29T11:28:34.765Z,1.87
2019-05-29T11:31:10.665Z,1.60
2019-05-29T11:33:46.070Z,1.40
2019-05-29T11:36:21.292Z,1.40
2019-05-29T11:38:57.324Z,1.40
2019-05-29T11:41:35.750Z,1.10
2019-05-29T11:44:11.883Z,1.37
2019-05-29T11:46:47.175Z,1.47
2019-05-29T11:49:22.414Z,1.63
2019-05-29T11:52:18.690Z,1.60
2019-05-29T11:54:35.568Z,1.67
2019-05-29T11:57:11.639Z,1.40
2019-05-29T11:59:47.561Z,1.50
2019-05-29T12:02:23.025Z,1.50
2019-05-29T12:05:02.696Z,1.50
2019-05-29T12:07:37.743Z,1.40
2019-05-29T12:10:14.797Z,1.53
2019-05-29T12:12:53.843Z,1.50
2019-05-29T12:15:28.909Z,1.70
2019-05-29T12:18:22.199Z,1.37
2019-05-29T12:20:40.829Z,1.40
2019-05-29T12:23:25.699Z,1.20
2019-05-29T12:26:12.533Z,1.50
2019-05-29T12:28:29.436Z,1.27
2019-05-29T12:31:04.754Z,1.20
2019-05-29T12:33:39.913Z,1.27
2019-05-29T12:36:15.149Z,1.07
2019-05-29T12:38:50.187Z,1.13
2019-05-29T12:41:25.245Z,1.60
2019-05-29T12:44:01.992Z,1.40
2019-05-29T12:46:37.164Z,1.47
2019-05-29T12:49:12.658Z,1.40
2019-05-29T12:51:47.821Z,1.50
2019-05-29T12:54:23.188Z,1.53
2019-05-29T12:56:59.947Z,1.30
2019-05-29T12:59:35.210Z,1.50
2019-05-29T13:02:10.308Z,1.27
2019-05-29T13:05:07.109Z,1.60
2019-05-29T13:07:25.245Z,1.80
2019-05-29T13:10:02.825Z,1.57
2019-05-29T13:12:38.457Z,1.70
2019-05-29T13:15:16.068Z,1.50
2019-05-29T13:17:55.540Z,1.57
2019-05-29T13:20:28.081Z,1.73
2019-05-29T13:23:05.466Z,1.50
2019-05-29T13:25:40.363Z,1.60
2019-05-29T13:28:15.378Z,1.60
2019-05-29T13:30:50.571Z,2.03
2019-05-29T13:33:25.607Z,2.00
2019-05-29T13:36:02.125Z,1.47
2019-05-29T13:38:37.409Z,1.70
2019-05-29T13:41:12.468Z,1.70
2019-05-29T13:43:47.651Z,1.60
2019-05-29T13:46:27.964Z,1.30
2019-05-29T13:49:03.240Z,1.37
2019-05-29T13:51:38.443Z,1.10
2019-05-29T13:54:17.723Z,1.73
2019-05-29T13:56:50.990Z,1.67
2019-05-29T13:59:29.177Z,1.70
2019-05-29T14:02:06.309Z,1.40
2019-05-29T14:04:41.506Z,1.50
2019-05-29T14:07:16.659Z,1.40
2019-05-29T14:09:51.821Z,1.33
2019-05-29T14:12:28.080Z,1.20
2019-05-29T14:15:04.486Z,1.30
2019-05-29T14:17:42.239Z,1.43
2019-05-29T14:20:18.062Z,1.50
2019-05-29T14:22:53.208Z,1.40
2019-05-29T14:25:28.339Z,1.40
2019-05-29T14:28:04.559Z,1.80
2019-05-29T14:30:39.775Z,1.37
2019-05-29T14:33:15.398Z,1.00
2019-05-29T14:35:50.518Z,1.10
2019-05-29T14:38:26.448Z,1.20
2019-05-29T14:41:03.556Z,1.37
2019-05-29T14:43:40.066Z,1.23
2019-05-29T14:46:18.074Z,1.00
2019-05-29T14:48:53.250Z,0.90
2019-05-29T14:51:28.866Z,1.33
2019-05-29T14:54:04.735Z,1.10
2019-05-29T14:56:40.065Z,1.20
2019-05-29T14:59:15.579Z,1.50
2019-05-29T15:01:51.533Z,1.20
2019-05-29T15:04:26.844Z,1.30
2019-05-29T15:07:06.063Z,1.67
2019-05-29T15:09:41.208Z,1.40
2019-05-29T15:12:16.718Z,1.47
2019-05-29T15:14:52.007Z,0.90
2019-05-29T15:17:27.190Z,1.20
2019-05-29T15:20:03.552Z,1.20
2019-05-29T15:22:39.500Z,1.50
2019-05-29T15:25:23.491Z,1.50
2019-05-29T15:27:52.786Z,1.30
2019-05-29T15:30:28.670Z,1.13
2019-05-29T15:33:03.905Z,1.03
2019-05-29T15:35:39.634Z,1.13
2019-05-29T15:38:16.929Z,1.00
2019-05-29T15:40:52.244Z,1.20
2019-05-29T15:43:27.399Z,1.80
2019-05-29T15:46:03.376Z,1.20
2019-05-29T15:48:38.666Z,1.10
2019-05-29T15:51:15.098Z,1.20
2019-05-29T15:53:50.573Z,1.40
2019-05-29T15:56:28.145Z,1.37
2019-05-29T15:59:02.810Z,1.70
2019-05-29T16:01:39.526Z,1.30
2019-05-29T16:04:15.768Z,1.30
2019-05-29T16:06:54.871Z,1.60
2019-05-29T16:09:29.841Z,1.50
2019-05-29T16:12:08.555Z,1.40
2019-05-29T16:14:43.788Z,1.20
2019-05-29T16:17:54.471Z,1.30
2019-05-29T16:21:06.499Z,1.40
2019-05-29T16:24:19.779Z,1.20
2019-05-29T16:27:08.011Z,1.00
2019-05-29T16:29:32.480Z,1.07
2019-05-29T16:32:08.466Z,1.13
2019-05-29T16:34:44.632Z,1.30
2019-05-29T16:37:20.046Z,1.70
2019-05-29T16:39:55.234Z,1.50
2019-05-29T16:42:30.394Z,1.20
2019-05-29T16:45:06.756Z,1.33
2019-05-29T16:47:41.816Z,1.40
2019-05-29T16:50:19.464Z,1.07
2019-05-29T16:52:56.147Z,1.10
2019-05-29T16:55:31.277Z,1.30
2019-05-29T16:58:06.649Z,1.27
2019-05-29T17:00:41.768Z,1.10
2019-05-29T17:03:17.672Z,1.20
2019-05-29T17:05:53.217Z,1.30
2019-05-29T17:08:28.244Z,1.40
2019-05-29T17:11:05.037Z,1.30
2019-05-29T17:13:43.330Z,1.13
2019-05-29T17:16:18.574Z,1.27
2019-05-29T17:18:55.253Z,0.90
2019-05-29T17:21:30.271Z,1.00
2019-05-29T17:24:05.443Z,0.90
2019-05-29T17:26:40.646Z,1.20
2019-05-29T17:29:16.968Z,1.20
2019-05-29T17:31:51.972Z,1.03
2019-05-29T17:34:27.809Z,1.00
2019-05-29T17:37:03.026Z,1.10
2019-05-29T17:39:38.111Z,1.30
2019-05-29T17:42:48.021Z,1.07
2019-05-29T17:45:25.745Z,1.00
2019-05-29T17:48:00.638Z,0.97
2019-05-29T17:50:35.785Z,1.00
2019-05-29T17:53:11.026Z,1.00
2019-05-29T17:55:47.215Z,1.30
2019-05-29T17:58:24.703Z,1.00
2019-05-29T18:00:59.991Z,0.90
2019-05-29T18:03:35.689Z,0.70
2019-05-29T18:06:11.274Z,0.80
2019-05-29T18:08:46.324Z,0.80
2019-05-29T18:11:21.503Z,0.93
2019-05-29T18:13:56.659Z,0.90
2019-05-29T18:16:32.532Z,0.93
2019-05-29T18:19:28.365Z,0.80
2019-05-29T18:22:03.619Z,1.00
2019-05-29T18:24:38.787Z,1.03
2019-05-29T18:27:13.985Z,1.00
2019-05-29T18:29:49.205Z,0.80
2019-05-29T18:32:24.535Z,0.90
2019-05-29T18:35:00.348Z,0.80
2019-05-29T18:37:35.481Z,0.80
2019-05-29T18:40:12.816Z,0.63
2019-05-29T18:42:48.256Z,0.80
2019-05-29T18:45:27.889Z,0.80
2019-05-29T18:48:07.538Z,0.70
2019-05-29T18:50:44.366Z,0.70
2019-05-29T18:53:20.708Z,0.80
2019-05-29T18:55:55.847Z,0.87
2019-05-29T18:58:32.898Z,0.80
2019-05-29T19:01:14.154Z,0.77
2019-05-29T19:03:51.580Z,0.90
2019-05-29T19:06:27.662Z,0.70
2019-05-29T19:09:04.197Z,0.60
2019-05-29T19:11:39.545Z,0.90
2019-05-29T19:14:14.703Z,0.87
2019-05-29T19:16:49.950Z,0.80
2019-05-29T19:19:26.190Z,0.63
2019-05-29T19:22:03.713Z,0.90
2019-05-29T19:24:38.859Z,0.80
2019-05-29T19:27:27.965Z,0.77
2019-05-29T19:29:50.965Z,0.70
2019-05-29T19:32:27.309Z,0.70
2019-05-29T19:35:03.567Z,1.07
2019-05-29T19:37:39.238Z,0.80
2019-05-29T19:40:14.721Z,0.80
2019-05-29T19:42:49.781Z,1.13
2019-05-29T19:45:26.448Z,0.80
2019-05-29T19:48:01.945Z,0.70
2019-05-29T19:50:39.739Z,0.63
2019-05-29T19:53:15.998Z,1.13
2019-05-29T19:55:51.228Z,0.87
2019-05-29T19:58:27.662Z,1.30
2019-05-29T20:01:06.777Z,1.00
2019-05-29T20:03:42.692Z,1.03
2019-05-29T20:06:17.961Z,1.03
2019-05-29T20:08:53.320Z,1.10
2019-05-29T20:11:29.433Z,1.23
2019-05-29T20:14:07.593Z,0.90
2019-05-29T20:16:43.125Z,0.90
2019-05-29T20:19:18.333Z,0.80
2019-05-29T20:21:54.549Z,0.90
2019-05-29T20:24:30.700Z,0.93
2019-05-29T20:27:05.995Z,1.10
2019-05-29T20:29:41.135Z,1.13
2019-05-29T20:32:18.619Z,1.20
2019-05-29T20:34:53.899Z,1.20
2019-05-29T20:37:30.002Z,1.40
2019-05-29T20:40:05.499Z,0.90
2019-05-29T20:42:40.793Z,1.20
2019-05-29T20:45:16.475Z,1.30
2019-05-29T20:47:53.168Z,1.20
2019-05-29T20:50:28.947Z,1.40
2019-05-29T20:53:04.172Z,1.27
2019-05-29T20:55:39.788Z,1.03
2019-05-29T20:58:24.479Z,1.27
2019-05-29T21:00:51.813Z,1.10
2019-05-29T21:03:27.276Z,1.30
2019-05-29T21:06:03.500Z,1.20
2019-05-29T21:08:38.970Z,1.33
2019-05-29T21:11:14.658Z,1.13
2019-05-29T21:13:49.798Z,1.10
2019-05-29T21:16:24.937Z,1.50
2019-05-29T21:19:00.125Z,1.50
2019-05-29T21:21:36.251Z,1.40
2019-05-29T21:24:11.501Z,1.53
2019-05-29T21:26:46.520Z,1.30
2019-05-29T21:29:21.586Z,1.57
2019-05-29T21:31:56.621Z,1.63
2019-05-29T21:34:31.698Z,1.90
2019-05-29T21:37:06.863Z,1.90
2019-05-29T21:39:42.429Z,2.03
2019-05-29T21:42:19.194Z,2.07
2019-05-29T21:44:54.251Z,1.30
2019-05-29T21:47:29.457Z,1.60
2019-05-29T21:50:05.082Z,1.70
2019-05-29T21:52:41.443Z,1.80
2019-05-29T21:55:17.348Z,1.50
2019-05-29T21:57:52.520Z,1.60
2019-05-29T22:00:35.867Z,1.50
2019-05-29T22:03:11.100Z,2.10
2019-05-29T22:05:46.795Z,1.50
2019-05-29T22:08:23.049Z,1.23
2019-05-29T22:10:59.612Z,1.40
2019-05-29T22:13:34.964Z,1.23
2019-05-29T22:16:10.207Z,1.30
2019-05-29T22:18:45.451Z,1.30
2019-05-29T22:21:20.640Z,1.50
2019-05-29T22:23:57.109Z,1.60
2019-05-29T22:26:32.274Z,1.23
2019-05-29T22:29:17.899Z,1.70
2019-05-29T22:31:45.679Z,1.23
2019-05-29T22:34:22.578Z,2.00
2019-05-29T22:36:59.650Z,1.30
2019-05-29T22:39:34.732Z,1.30
2019-05-29T22:42:09.944Z,1.13
2019-05-29T22:44:45.603Z,1.50
2019-05-29T22:47:21.203Z,1.60
2019-05-29T22:49:57.837Z,1.20
2019-05-29T22:52:33.451Z,1.30
2019-05-29T22:55:09.066Z,1.70
2019-05-29T22:57:44.243Z,1.20
2019-05-29T23:00:20.075Z,1.23
2019-05-29T23:02:56.143Z,1.50
2019-05-29T23:05:31.482Z,1.17
2019-05-29T23:08:08.919Z,1.53
2019-05-29T23:10:44.525Z,1.23
2019-05-29T23:13:20.571Z,1.30
2019-05-29T23:15:56.646Z,1.30
2019-05-29T23:18:31.928Z,1.23
2019-05-29T23:21:43.026Z,0.97
2019-05-29T23:24:18.377Z,1.37
2019-05-29T23:26:54.898Z,1.20
2019-05-29T23:29:30.024Z,0.93
2019-05-29T23:32:05.059Z,1.30
2019-05-29T23:34:41.333Z,1.10
2019-05-29T23:37:16.425Z,1.40
2019-05-29T23:39:51.441Z,1.40
2019-05-29T23:42:26.492Z,1.33
2019-05-29T23:45:05.602Z,1.20
2019-05-29T23:47:47.450Z,1.10
2019-05-29T23:50:23.829Z,1.83
2019-05-29T23:52:59.665Z,1.00
2019-05-29T23:55:34.830Z,1.40
2019-05-29T23:58:09.849Z,1.43
